sensor_id;sensor_type;location;lat;lon;timestamp;pressure;altitude;pressure_sealevel;temperature;humidity
82619;BME280;72286;12.138;-68.936;2023-08-20T00:01:14;100794.73;;;29.82;61.52
82619;BME280;72286;12.138;-68.936;2023-08-20T00:04:52;100802.50;;;29.82;61.68
82619;BME280;72286;12.138;-68.936;2023-08-20T00:08:29;100803.63;;;29.84;61.59
82619;BME280;72286;12.138;-68.936;2023-08-20T00:12:06;100808.75;;;29.83;61.74
82619;BME280;72286;12.138;-68.936;2023-08-20T00:15:44;100808.76;;;29.84;61.86
82619;BME280;72286;12.138;-68.936;2023-08-20T00:19:22;100818.55;;;29.85;62.15
82619;BME280;72286;12.138;-68.936;2023-08-20T00:23:00;100820.23;;;29.86;62.32
82619;BME280;72286;12.138;-68.936;2023-08-20T00:26:37;100824.14;;;29.87;62.13
82619;BME280;72286;12.138;-68.936;2023-08-20T00:30:15;100828.57;;;29.88;62.31
82619;BME280;72286;12.138;-68.936;2023-08-20T00:33:52;100826.38;;;29.86;62.35
82619;BME280;72286;12.138;-68.936;2023-08-20T00:37:31;100830.79;;;29.87;62.48
82619;BME280;72286;12.138;-68.936;2023-08-20T00:41:08;100826.54;;;29.88;62.65
82619;BME280;72286;12.138;-68.936;2023-08-20T00:44:46;100825.76;;;29.89;62.69
82619;BME280;72286;12.138;-68.936;2023-08-20T00:48:24;100824.67;;;29.89;62.66
82619;BME280;72286;12.138;-68.936;2023-08-20T00:52:02;100827.18;;;29.89;62.81
82619;BME280;72286;12.138;-68.936;2023-08-20T00:55:39;100820.70;;;29.89;62.97
82619;BME280;72286;12.138;-68.936;2023-08-20T00:59:17;100821.61;;;29.91;63.14
82619;BME280;72286;12.138;-68.936;2023-08-20T01:02:54;100824.34;;;29.90;63.17
82619;BME280;72286;12.138;-68.936;2023-08-20T01:06:53;100826.13;;;29.91;63.10
82619;BME280;72286;12.138;-68.936;2023-08-20T01:10:39;100830.52;;;29.92;63.06
82619;BME280;72286;12.138;-68.936;2023-08-20T01:14:17;100834.73;;;29.89;62.99
82619;BME280;72286;12.138;-68.936;2023-08-20T01:17:55;100839.52;;;29.90;63.20
82619;BME280;72286;12.138;-68.936;2023-08-20T01:21:39;100839.78;;;29.90;63.39
82619;BME280;72286;12.138;-68.936;2023-08-20T01:29:25;100842.19;;;29.90;63.25
82619;BME280;72286;12.138;-68.936;2023-08-20T01:33:02;100854.16;;;29.89;63.30
82619;BME280;72286;12.138;-68.936;2023-08-20T01:36:40;100848.48;;;29.90;63.32
82619;BME280;72286;12.138;-68.936;2023-08-20T01:40:18;100855.01;;;29.90;63.58
82619;BME280;72286;12.138;-68.936;2023-08-20T01:44:15;100857.52;;;29.92;63.48
82619;BME280;72286;12.138;-68.936;2023-08-20T01:47:53;100864.52;;;29.93;63.51
82619;BME280;72286;12.138;-68.936;2023-08-20T01:51:11;100864.31;;;29.94;63.42
82619;BME280;72286;12.138;-68.936;2023-08-20T01:54:49;100862.38;;;29.93;63.42
82619;BME280;72286;12.138;-68.936;2023-08-20T01:58:26;100874.89;;;29.94;63.64
82619;BME280;72286;12.138;-68.936;2023-08-20T02:02:24;100874.30;;;29.95;63.66
82619;BME280;72286;12.138;-68.936;2023-08-20T02:05:41;100882.52;;;29.95;63.53
82619;BME280;72286;12.138;-68.936;2023-08-20T02:09:39;100879.32;;;29.95;63.50
82619;BME280;72286;12.138;-68.936;2023-08-20T02:12:57;100885.05;;;29.95;63.57
82619;BME280;72286;12.138;-68.936;2023-08-20T02:16:34;100885.02;;;29.95;63.72
82619;BME280;72286;12.138;-68.936;2023-08-20T02:20:12;100886.45;;;29.94;63.68
82619;BME280;72286;12.138;-68.936;2023-08-20T02:23:50;100888.77;;;29.94;63.75
82619;BME280;72286;12.138;-68.936;2023-08-20T02:27:28;100895.53;;;29.93;63.60
82619;BME280;72286;12.138;-68.936;2023-08-20T02:31:05;100895.46;;;29.92;63.65
82619;BME280;72286;12.138;-68.936;2023-08-20T02:34:43;100890.80;;;29.92;63.92
82619;BME280;72286;12.138;-68.936;2023-08-20T02:38:21;100896.08;;;29.91;64.11
82619;BME280;72286;12.138;-68.936;2023-08-20T02:41:58;100898.66;;;29.91;64.02
82619;BME280;72286;12.138;-68.936;2023-08-20T02:45:40;100896.05;;;29.90;63.94
82619;BME280;72286;12.138;-68.936;2023-08-20T02:49:15;100894.83;;;29.89;63.97
82619;BME280;72286;12.138;-68.936;2023-08-20T02:53:13;100899.50;;;29.91;64.32
82619;BME280;72286;12.138;-68.936;2023-08-20T02:56:31;100898.69;;;29.90;64.34
82619;BME280;72286;12.138;-68.936;2023-08-20T03:00:09;100898.33;;;29.90;64.31
82619;BME280;72286;12.138;-68.936;2023-08-20T03:03:46;100902.73;;;29.89;64.34
82619;BME280;72286;12.138;-68.936;2023-08-20T03:07:24;100910.50;;;29.89;64.44
82619;BME280;72286;12.138;-68.936;2023-08-20T03:11:02;100917.75;;;29.89;64.58
82619;BME280;72286;12.138;-68.936;2023-08-20T03:14:39;100914.34;;;29.89;64.54
82619;BME280;72286;12.138;-68.936;2023-08-20T03:18:17;100915.48;;;29.88;64.60
82619;BME280;72286;12.138;-68.936;2023-08-20T03:21:55;100918.13;;;29.87;64.52
82619;BME280;72286;12.138;-68.936;2023-08-20T03:25:32;100919.01;;;29.87;64.62
82619;BME280;72286;12.138;-68.936;2023-08-20T03:29:10;100927.09;;;29.87;64.70
82619;BME280;72286;12.138;-68.936;2023-08-20T03:32:47;100922.55;;;29.86;64.86
82619;BME280;72286;12.138;-68.936;2023-08-20T03:36:25;100916.56;;;29.85;64.81
82619;BME280;72286;12.138;-68.936;2023-08-20T03:40:03;100913.92;;;29.84;64.99
82619;BME280;72286;12.138;-68.936;2023-08-20T03:43:40;100907.02;;;29.85;65.16
82619;BME280;72286;12.138;-68.936;2023-08-20T03:47:18;100891.90;;;29.85;65.04
82619;BME280;72286;12.138;-68.936;2023-08-20T03:50:56;100882.27;;;29.85;65.10
82619;BME280;72286;12.138;-68.936;2023-08-20T03:54:34;100877.14;;;29.85;65.04
82619;BME280;72286;12.138;-68.936;2023-08-20T03:58:11;100873.83;;;29.84;65.00
82619;BME280;72286;12.138;-68.936;2023-08-20T04:02:08;100867.59;;;29.85;65.27
82619;BME280;72286;12.138;-68.936;2023-08-20T04:05:27;100856.24;;;29.85;65.29
82619;BME280;72286;12.138;-68.936;2023-08-20T04:09:04;100851.35;;;29.83;65.26
82619;BME280;72286;12.138;-68.936;2023-08-20T04:12:42;100849.09;;;29.83;65.17
82619;BME280;72286;12.138;-68.936;2023-08-20T04:16:20;100838.91;;;29.84;65.37
82619;BME280;72286;12.138;-68.936;2023-08-20T04:19:57;100840.35;;;29.84;65.50
82619;BME280;72286;12.138;-68.936;2023-08-20T04:23:35;100843.28;;;29.83;65.20
82619;BME280;72286;12.138;-68.936;2023-08-20T04:27:13;100843.34;;;29.82;65.17
82619;BME280;72286;12.138;-68.936;2023-08-20T04:31:10;100836.13;;;29.83;65.38
82619;BME280;72286;12.138;-68.936;2023-08-20T04:34:28;100835.86;;;29.84;65.38
82619;BME280;72286;12.138;-68.936;2023-08-20T04:38:06;100830.58;;;29.82;65.48
82619;BME280;72286;12.138;-68.936;2023-08-20T04:41:43;100828.18;;;29.81;65.31
82619;BME280;72286;12.138;-68.936;2023-08-20T04:45:21;100829.99;;;29.81;65.46
82619;BME280;72286;12.138;-68.936;2023-08-20T04:48:59;100829.48;;;29.81;65.67
82619;BME280;72286;12.138;-68.936;2023-08-20T04:52:37;100827.86;;;29.81;65.51
82619;BME280;72286;12.138;-68.936;2023-08-20T04:56:14;100818.64;;;29.79;65.51
82619;BME280;72286;12.138;-68.936;2023-08-20T04:59:52;100809.12;;;29.77;65.53
82619;BME280;72286;12.138;-68.936;2023-08-20T05:03:30;100805.69;;;29.77;65.55
82619;BME280;72286;12.138;-68.936;2023-08-20T05:07:07;100803.18;;;29.77;65.69
82619;BME280;72286;12.138;-68.936;2023-08-20T05:10:45;100808.16;;;29.76;65.78
82619;BME280;72286;12.138;-68.936;2023-08-20T05:14:23;100814.34;;;29.76;65.61
82619;BME280;72286;12.138;-68.936;2023-08-20T05:18:20;100803.59;;;29.77;65.64
82619;BME280;72286;12.138;-68.936;2023-08-20T05:21:38;100796.14;;;29.78;65.85
82619;BME280;72286;12.138;-68.936;2023-08-20T05:25:16;100789.57;;;29.77;65.81
82619;BME280;72286;12.138;-68.936;2023-08-20T05:28:53;100788.96;;;29.75;65.82
82619;BME280;72286;12.138;-68.936;2023-08-20T05:32:31;100791.82;;;29.74;65.74
82619;BME280;72286;12.138;-68.936;2023-08-20T05:36:09;100788.52;;;29.76;65.89
82619;BME280;72286;12.138;-68.936;2023-08-20T05:39:46;100774.05;;;29.75;65.87
82619;BME280;72286;12.138;-68.936;2023-08-20T05:43:24;100778.27;;;29.74;65.91
82619;BME280;72286;12.138;-68.936;2023-08-20T05:47:02;100773.31;;;29.74;65.72
82619;BME280;72286;12.138;-68.936;2023-08-20T05:50:40;100776.29;;;29.73;65.75
82619;BME280;72286;12.138;-68.936;2023-08-20T05:54:17;100780.10;;;29.73;65.91
82619;BME280;72286;12.138;-68.936;2023-08-20T05:57:56;100778.23;;;29.72;65.80
82619;BME280;72286;12.138;-68.936;2023-08-20T06:01:33;100771.35;;;29.72;65.83
82619;BME280;72286;12.138;-68.936;2023-08-20T06:05:10;100767.21;;;29.70;65.81
82619;BME280;72286;12.138;-68.936;2023-08-20T06:08:48;100758.01;;;29.70;65.91
82619;BME280;72286;12.138;-68.936;2023-08-20T06:12:26;100747.73;;;29.71;65.95
82619;BME280;72286;12.138;-68.936;2023-08-20T06:16:04;100741.95;;;29.71;65.92
82619;BME280;72286;12.138;-68.936;2023-08-20T06:19:41;100732.45;;;29.69;65.69
82619;BME280;72286;12.138;-68.936;2023-08-20T06:23:19;100729.63;;;29.70;65.70
82619;BME280;72286;12.138;-68.936;2023-08-20T06:27:16;100723.73;;;29.71;66.02
82619;BME280;72286;12.138;-68.936;2023-08-20T06:30:34;100716.20;;;29.71;65.86
82619;BME280;72286;12.138;-68.936;2023-08-20T06:34:12;100706.66;;;29.71;65.69
82619;BME280;72286;12.138;-68.936;2023-08-20T06:37:50;100705.73;;;29.70;65.40
82619;BME280;72286;12.138;-68.936;2023-08-20T06:41:27;100699.82;;;29.69;65.55
82619;BME280;72286;12.138;-68.936;2023-08-20T06:45:06;100690.45;;;29.69;65.72
82619;BME280;72286;12.138;-68.936;2023-08-20T06:48:43;100689.84;;;29.68;65.60
82619;BME280;72286;12.138;-68.936;2023-08-20T06:52:20;100685.65;;;29.67;65.57
82619;BME280;72286;12.138;-68.936;2023-08-20T06:55:58;100678.38;;;29.66;65.39
82619;BME280;72286;12.138;-68.936;2023-08-20T06:59:36;100675.08;;;29.67;65.61
82619;BME280;72286;12.138;-68.936;2023-08-20T07:03:13;100675.98;;;29.67;65.65
82619;BME280;72286;12.138;-68.936;2023-08-20T07:06:51;100675.98;;;29.67;65.74
82619;BME280;72286;12.138;-68.936;2023-08-20T07:10:29;100675.17;;;29.66;65.51
82619;BME280;72286;12.138;-68.936;2023-08-20T07:14:06;100670.85;;;29.64;65.44
82619;BME280;72286;12.138;-68.936;2023-08-20T07:17:44;100660.48;;;29.65;65.59
82619;BME280;72286;12.138;-68.936;2023-08-20T07:21:22;100661.36;;;29.65;65.65
82619;BME280;72286;12.138;-68.936;2023-08-20T07:24:59;100656.16;;;29.63;65.63
82619;BME280;72286;12.138;-68.936;2023-08-20T07:28:38;100654.55;;;29.64;65.52
82619;BME280;72286;12.138;-68.936;2023-08-20T07:32:30;100655.83;;;29.62;65.47
82619;BME280;72286;12.138;-68.936;2023-08-20T07:36:08;100652.02;;;29.62;65.55
82619;BME280;72286;12.138;-68.936;2023-08-20T07:39:45;100648.44;;;29.62;65.66
82619;BME280;72286;12.138;-68.936;2023-08-20T07:43:24;100646.56;;;29.61;65.54
82619;BME280;72286;12.138;-68.936;2023-08-20T07:47:00;100640.08;;;29.59;65.63
82619;BME280;72286;12.138;-68.936;2023-08-20T07:50:38;100628.43;;;29.59;65.65
82619;BME280;72286;12.138;-68.936;2023-08-20T07:54:16;100634.08;;;29.60;65.83
82619;BME280;72286;12.138;-68.936;2023-08-20T07:57:54;100638.89;;;29.58;65.76
82619;BME280;72286;12.138;-68.936;2023-08-20T08:01:51;100636.70;;;29.59;65.56
82619;BME280;72286;12.138;-68.936;2023-08-20T08:05:09;100643.14;;;29.57;65.64
82619;BME280;72286;12.138;-68.936;2023-08-20T08:08:47;100657.42;;;29.59;65.84
82619;BME280;72286;12.138;-68.936;2023-08-20T08:12:24;100657.33;;;29.58;65.84
82619;BME280;72286;12.138;-68.936;2023-08-20T08:16:02;100661.84;;;29.58;65.76
82619;BME280;72286;12.138;-68.936;2023-08-20T08:19:40;100658.87;;;29.57;65.81
82619;BME280;72286;12.138;-68.936;2023-08-20T08:23:17;100658.73;;;29.56;65.76
82619;BME280;72286;12.138;-68.936;2023-08-20T08:26:55;100661.98;;;29.56;65.89
82619;BME280;72286;12.138;-68.936;2023-08-20T08:30:33;100652.97;;;29.55;66.04
82619;BME280;72286;12.138;-68.936;2023-08-20T08:34:10;100652.52;;;29.53;65.97
82619;BME280;72286;12.138;-68.936;2023-08-20T08:37:48;100646.45;;;29.51;65.82
82619;BME280;72286;12.138;-68.936;2023-08-20T08:41:28;100646.79;;;29.51;66.11
82619;BME280;72286;12.138;-68.936;2023-08-20T08:45:23;100654.65;;;29.52;65.90
82619;BME280;72286;12.138;-68.936;2023-08-20T08:49:01;100656.18;;;29.53;66.00
82619;BME280;72286;12.138;-68.936;2023-08-20T08:52:19;100648.89;;;29.52;65.92
82619;BME280;72286;12.138;-68.936;2023-08-20T08:55:57;100650.30;;;29.52;65.87
82619;BME280;72286;12.138;-68.936;2023-08-20T08:59:34;100647.23;;;29.47;66.07
82619;BME280;72286;12.138;-68.936;2023-08-20T09:03:12;100649.61;;;29.50;66.16
82619;BME280;72286;12.138;-68.936;2023-08-20T09:06:51;100646.63;;;29.48;66.08
82619;BME280;72286;12.138;-68.936;2023-08-20T09:10:27;100644.54;;;29.47;65.96
82619;BME280;72286;12.138;-68.936;2023-08-20T09:14:05;100655.06;;;29.48;66.17
82619;BME280;72286;12.138;-68.936;2023-08-20T09:17:43;100653.41;;;29.47;66.25
82619;BME280;72286;12.138;-68.936;2023-08-20T09:21:26;100651.37;;;29.45;66.04
82619;BME280;72286;12.138;-68.936;2023-08-20T09:25:04;100647.99;;;29.43;65.88
82619;BME280;72286;12.138;-68.936;2023-08-20T09:28:43;100645.52;;;29.43;65.99
82619;BME280;72286;12.138;-68.936;2023-08-20T09:32:23;100639.86;;;29.42;66.17
82619;BME280;72286;12.138;-68.936;2023-08-20T09:35:57;100633.59;;;29.42;66.07
82619;BME280;72286;12.138;-68.936;2023-08-20T09:39:55;100635.41;;;29.41;66.04
82619;BME280;72286;12.138;-68.936;2023-08-20T09:43:14;100629.56;;;29.41;65.96
82619;BME280;72286;12.138;-68.936;2023-08-20T09:46:50;100627.27;;;29.42;66.20
82619;BME280;72286;12.138;-68.936;2023-08-20T09:50:29;100635.23;;;29.42;66.19
82619;BME280;72286;12.138;-68.936;2023-08-20T09:54:28;100652.41;;;29.40;66.11
82619;BME280;72286;12.138;-68.936;2023-08-20T09:58:05;100658.91;;;29.38;66.05
82619;BME280;72286;12.138;-68.936;2023-08-20T10:01:43;100658.95;;;29.38;65.89
82619;BME280;72286;12.138;-68.936;2023-08-20T10:05:20;100660.84;;;29.37;66.04
82619;BME280;72286;12.138;-68.936;2023-08-20T10:08:58;100667.20;;;29.35;66.04
82619;BME280;72286;12.138;-68.936;2023-08-20T10:12:36;100665.70;;;29.34;65.90
82619;BME280;72286;12.138;-68.936;2023-08-20T10:16:13;100677.26;;;29.32;66.06
82619;BME280;72286;12.138;-68.936;2023-08-20T10:19:52;100688.59;;;29.32;66.11
82619;BME280;72286;12.138;-68.936;2023-08-20T10:23:29;100692.73;;;29.32;66.31
82619;BME280;72286;12.138;-68.936;2023-08-20T10:27:10;100686.73;;;29.31;66.06
82619;BME280;72286;12.138;-68.936;2023-08-20T10:31:10;100682.65;;;29.30;66.04
82619;BME280;72286;12.138;-68.936;2023-08-20T10:34:50;100690.44;;;29.30;66.19
82619;BME280;72286;12.138;-68.936;2023-08-20T10:38:25;100695.71;;;29.29;66.12
82619;BME280;72286;12.138;-68.936;2023-08-20T10:46:02;100692.73;;;29.28;66.01
82619;BME280;72286;12.138;-68.936;2023-08-20T10:50:00;100687.23;;;29.26;65.88
82619;BME280;72286;12.138;-68.936;2023-08-20T10:53:15;100676.85;;;29.26;65.98
82619;BME280;72286;12.138;-68.936;2023-08-20T10:56:58;100671.11;;;29.25;66.23
82619;BME280;72286;12.138;-68.936;2023-08-20T11:00:36;100676.05;;;29.24;66.27
82619;BME280;72286;12.138;-68.936;2023-08-20T11:04:15;100691.39;;;29.24;66.26
82619;BME280;72286;12.138;-68.936;2023-08-20T11:07:50;100691.88;;;29.24;66.21
82619;BME280;72286;12.138;-68.936;2023-08-20T11:11:28;100696.95;;;29.24;66.31
82619;BME280;72286;12.138;-68.936;2023-08-20T11:15:07;100726.34;;;29.24;66.27
82619;BME280;72286;12.138;-68.936;2023-08-20T11:18:43;100729.23;;;29.23;66.17
82619;BME280;72286;12.138;-68.936;2023-08-20T11:22:21;100727.54;;;29.22;66.23
82619;BME280;72286;12.138;-68.936;2023-08-20T11:25:59;100731.20;;;29.23;66.54
82619;BME280;72286;12.138;-68.936;2023-08-20T11:29:36;100732.23;;;29.22;66.79
82619;BME280;72286;12.138;-68.936;2023-08-20T11:33:15;100729.80;;;29.23;66.53
82619;BME280;72286;12.138;-68.936;2023-08-20T11:37:12;100730.98;;;29.24;66.41
82619;BME280;72286;12.138;-68.936;2023-08-20T11:40:30;100733.36;;;29.25;66.59
82619;BME280;72286;12.138;-68.936;2023-08-20T11:44:10;100732.61;;;29.25;66.69
82619;BME280;72286;12.138;-68.936;2023-08-20T11:47:45;100743.52;;;29.26;66.68
82619;BME280;72286;12.138;-68.936;2023-08-20T11:51:23;100746.05;;;29.24;66.51
82619;BME280;72286;12.138;-68.936;2023-08-20T11:55:00;100756.04;;;29.25;66.54
82619;BME280;72286;12.138;-68.936;2023-08-20T11:58:38;100771.00;;;29.28;66.60
82619;BME280;72286;12.138;-68.936;2023-08-20T12:02:27;100774.29;;;29.28;66.59
82619;BME280;72286;12.138;-68.936;2023-08-20T12:06:18;100777.27;;;29.28;66.56
82619;BME280;72286;12.138;-68.936;2023-08-20T12:09:54;100774.11;;;29.28;66.61
82619;BME280;72286;12.138;-68.936;2023-08-20T12:13:31;100764.48;;;29.28;66.66
82619;BME280;72286;12.138;-68.936;2023-08-20T12:17:08;100758.59;;;29.30;66.67
82619;BME280;72286;12.138;-68.936;2023-08-20T12:20:46;100750.13;;;29.30;66.53
82619;BME280;72286;12.138;-68.936;2023-08-20T12:24:24;100752.16;;;29.31;66.66
82619;BME280;72286;12.138;-68.936;2023-08-20T12:28:02;100750.81;;;29.32;66.58
82619;BME280;72286;12.138;-68.936;2023-08-20T12:31:40;100742.79;;;29.33;66.63
82619;BME280;72286;12.138;-68.936;2023-08-20T12:35:17;100737.13;;;29.34;66.70
82619;BME280;72286;12.138;-68.936;2023-08-20T12:38:55;100749.68;;;29.34;66.56
82619;BME280;72286;12.138;-68.936;2023-08-20T12:42:32;100764.00;;;29.35;66.51
82619;BME280;72286;12.138;-68.936;2023-08-20T12:46:10;100773.17;;;29.36;66.76
82619;BME280;72286;12.138;-68.936;2023-08-20T12:49:47;100785.81;;;29.38;66.70
82619;BME280;72286;12.138;-68.936;2023-08-20T12:53:25;100785.80;;;29.38;66.66
82619;BME280;72286;12.138;-68.936;2023-08-20T12:57:03;100784.35;;;29.38;66.40
82619;BME280;72286;12.138;-68.936;2023-08-20T13:00:41;100780.05;;;29.40;66.53
82619;BME280;72286;12.138;-68.936;2023-08-20T13:04:19;100782.45;;;29.41;66.72
82619;BME280;72286;12.138;-68.936;2023-08-20T13:07:56;100796.05;;;29.42;66.72
82619;BME280;72286;12.138;-68.936;2023-08-20T13:11:34;100797.65;;;29.42;66.67
82619;BME280;72286;12.138;-68.936;2023-08-20T13:15:12;100803.28;;;29.43;66.80
82619;BME280;72286;12.138;-68.936;2023-08-20T13:18:49;100811.33;;;29.45;66.97
82619;BME280;72286;12.138;-68.936;2023-08-20T13:22:27;100811.16;;;29.45;66.92
82619;BME280;72286;12.138;-68.936;2023-08-20T13:26:04;100804.28;;;29.45;66.82
82619;BME280;72286;12.138;-68.936;2023-08-20T13:29:42;100800.48;;;29.47;66.97
82619;BME280;72286;12.138;-68.936;2023-08-20T13:33:39;100797.57;;;29.49;67.18
82619;BME280;72286;12.138;-68.936;2023-08-20T13:36:57;100795.22;;;29.51;67.17
82619;BME280;72286;12.138;-68.936;2023-08-20T13:40:36;100796.95;;;29.52;67.14
82619;BME280;72286;12.138;-68.936;2023-08-20T13:44:13;100803.56;;;29.55;67.16
82619;BME280;72286;12.138;-68.936;2023-08-20T13:48:10;100807.77;;;29.57;67.28
82619;BME280;72286;12.138;-68.936;2023-08-20T13:51:29;100811.41;;;29.59;67.21
82619;BME280;72286;12.138;-68.936;2023-08-20T13:55:06;100805.45;;;29.61;67.15
82619;BME280;72286;12.138;-68.936;2023-08-20T13:58:43;100803.95;;;29.63;67.05
82619;BME280;72286;12.138;-68.936;2023-08-20T14:02:21;100798.56;;;29.65;67.20
82619;BME280;72286;12.138;-68.936;2023-08-20T14:05:59;100797.90;;;29.68;67.10
82619;BME280;72286;12.138;-68.936;2023-08-20T14:09:37;100787.01;;;29.67;67.21
82619;BME280;72286;12.138;-68.936;2023-08-20T14:13:14;100787.86;;;29.69;67.13
82619;BME280;72286;12.138;-68.936;2023-08-20T14:16:52;100788.39;;;29.71;67.19
82619;BME280;72286;12.138;-68.936;2023-08-20T14:20:30;100786.06;;;29.72;67.15
82619;BME280;72286;12.138;-68.936;2023-08-20T14:24:07;100785.60;;;29.73;67.03
82619;BME280;72286;12.138;-68.936;2023-08-20T14:27:45;100789.53;;;29.75;66.95
82619;BME280;72286;12.138;-68.936;2023-08-20T14:31:23;100791.70;;;29.77;67.10
82619;BME280;72286;12.138;-68.936;2023-08-20T14:35:01;100801.16;;;29.78;66.95
82619;BME280;72286;12.138;-68.936;2023-08-20T14:38:38;100800.20;;;29.78;66.86
82619;BME280;72286;12.138;-68.936;2023-08-20T14:42:36;100805.75;;;29.82;66.78
82619;BME280;72286;12.138;-68.936;2023-08-20T14:45:54;100803.84;;;29.85;66.74
82619;BME280;72286;12.138;-68.936;2023-08-20T14:49:31;100815.05;;;29.86;66.72
82619;BME280;72286;12.138;-68.936;2023-08-20T14:53:09;100816.15;;;29.86;66.59
82619;BME280;72286;12.138;-68.936;2023-08-20T14:56:47;100808.59;;;29.84;66.69
82619;BME280;72286;12.138;-68.936;2023-08-20T15:00:44;100809.79;;;29.88;66.87
82619;BME280;72286;12.138;-68.936;2023-08-20T15:04:02;100806.91;;;29.88;66.79
82619;BME280;72286;12.138;-68.936;2023-08-20T15:07:40;100801.96;;;29.89;66.80
82619;BME280;72286;12.138;-68.936;2023-08-20T15:11:37;100801.94;;;29.89;66.78
82619;BME280;72286;12.138;-68.936;2023-08-20T15:15:15;100806.27;;;29.92;66.76
82619;BME280;72286;12.138;-68.936;2023-08-20T15:18:33;100807.74;;;29.94;67.00
82619;BME280;72286;12.138;-68.936;2023-08-20T15:22:13;100807.23;;;29.94;66.86
82619;BME280;72286;12.138;-68.936;2023-08-20T15:25:48;100803.16;;;29.93;66.77
82619;BME280;72286;12.138;-68.936;2023-08-20T15:29:26;100808.73;;;29.93;66.97
82619;BME280;72286;12.138;-68.936;2023-08-20T15:33:04;100800.84;;;29.93;67.06
82619;BME280;72286;12.138;-68.936;2023-08-20T15:36:41;100805.84;;;29.92;66.94
82619;BME280;72286;12.138;-68.936;2023-08-20T15:40:19;100820.50;;;29.93;67.19
82619;BME280;72286;12.138;-68.936;2023-08-20T15:43:56;100828.93;;;29.93;67.09
82619;BME280;72286;12.138;-68.936;2023-08-20T15:47:34;100828.98;;;29.93;67.46
82619;BME280;72286;12.138;-68.936;2023-08-20T15:51:12;100833.90;;;29.92;67.69
82619;BME280;72286;12.138;-68.936;2023-08-20T15:54:50;100820.52;;;29.91;67.89
82619;BME280;72286;12.138;-68.936;2023-08-20T15:58:27;100813.95;;;29.90;68.04
82619;BME280;72286;12.138;-68.936;2023-08-20T16:02:05;100812.23;;;29.89;68.51
82619;BME280;72286;12.138;-68.936;2023-08-20T16:05:43;100819.27;;;29.89;68.57
82619;BME280;72286;12.138;-68.936;2023-08-20T16:09:20;100813.66;;;29.87;68.87
82619;BME280;72286;12.138;-68.936;2023-08-20T16:12:58;100816.67;;;29.88;68.75
82619;BME280;72286;12.138;-68.936;2023-08-20T16:16:36;100819.23;;;29.87;69.12
82619;BME280;72286;12.138;-68.936;2023-08-20T16:20:13;100825.68;;;29.88;69.17
82619;BME280;72286;12.138;-68.936;2023-08-20T16:23:51;100827.39;;;29.88;69.20
82619;BME280;72286;12.138;-68.936;2023-08-20T16:27:29;100827.11;;;29.88;69.29
82619;BME280;72286;12.138;-68.936;2023-08-20T16:31:06;100824.88;;;29.89;69.35
82619;BME280;72286;12.138;-68.936;2023-08-20T16:35:04;100818.34;;;29.89;69.78
82619;BME280;72286;12.138;-68.936;2023-08-20T16:38:22;100807.80;;;29.88;69.62
82619;BME280;72286;12.138;-68.936;2023-08-20T16:42:00;100802.33;;;29.89;69.63
82619;BME280;72286;12.138;-68.936;2023-08-20T16:45:37;100787.73;;;29.89;69.68
82619;BME280;72286;12.138;-68.936;2023-08-20T16:49:15;100782.89;;;29.89;69.85
82619;BME280;72286;12.138;-68.936;2023-08-20T16:52:53;100786.10;;;29.89;69.70
82619;BME280;72286;12.138;-68.936;2023-08-20T16:56:30;100779.25;;;29.89;69.70
82619;BME280;72286;12.138;-68.936;2023-08-20T17:00:08;100772.52;;;29.90;69.57
82619;BME280;72286;12.138;-68.936;2023-08-20T17:03:46;100758.68;;;29.91;69.57
82619;BME280;72286;12.138;-68.936;2023-08-20T17:07:23;100748.15;;;29.92;69.45
82619;BME280;72286;12.138;-68.936;2023-08-20T17:11:08;100734.00;;;29.92;69.39
82619;BME280;72286;12.138;-68.936;2023-08-20T17:14:43;100723.81;;;29.93;69.41
82619;BME280;72286;12.138;-68.936;2023-08-20T17:18:20;100716.89;;;29.93;69.38
82619;BME280;72286;12.138;-68.936;2023-08-20T17:21:58;100714.05;;;29.93;69.26
82619;BME280;72286;12.138;-68.936;2023-08-20T17:25:36;100713.87;;;29.95;69.32
82619;BME280;72286;12.138;-68.936;2023-08-20T17:29:33;100706.23;;;29.97;69.48
82619;BME280;72286;12.138;-68.936;2023-08-20T17:32:51;100705.45;;;29.98;69.29
82619;BME280;72286;12.138;-68.936;2023-08-20T17:36:29;100697.73;;;29.97;69.25
82619;BME280;72286;12.138;-68.936;2023-08-20T17:40:07;100686.09;;;29.98;69.19
82619;BME280;72286;12.138;-68.936;2023-08-20T17:43:44;100672.49;;;29.99;69.05
82619;BME280;72286;12.138;-68.936;2023-08-20T17:47:22;100657.61;;;30.00;68.98
82619;BME280;72286;12.138;-68.936;2023-08-20T17:50:59;100646.35;;;30.01;68.89
82619;BME280;72286;12.138;-68.936;2023-08-20T17:54:37;100630.88;;;30.01;68.69
82619;BME280;72286;12.138;-68.936;2023-08-20T17:58:15;100623.52;;;30.03;68.88
82619;BME280;72286;12.138;-68.936;2023-08-20T18:01:52;100617.23;;;30.03;68.92
82619;BME280;72286;12.138;-68.936;2023-08-20T18:05:30;100609.21;;;30.03;68.67
82619;BME280;72286;12.138;-68.936;2023-08-20T18:09:08;100604.05;;;30.05;68.71
82619;BME280;72286;12.138;-68.936;2023-08-20T18:12:46;100588.79;;;30.06;68.70
82619;BME280;72286;12.138;-68.936;2023-08-20T18:16:23;100577.52;;;30.07;68.74
82619;BME280;72286;12.138;-68.936;2023-08-20T18:20:01;100574.15;;;30.08;68.64
82619;BME280;72286;12.138;-68.936;2023-08-20T18:23:39;100569.02;;;30.09;68.24
82619;BME280;72286;12.138;-68.936;2023-08-20T18:27:16;100560.10;;;30.11;68.46
82619;BME280;72286;12.138;-68.936;2023-08-20T18:30:54;100548.76;;;30.13;68.45
82619;BME280;72286;12.138;-68.936;2023-08-20T18:34:32;100546.70;;;30.13;68.08
82619;BME280;72286;12.138;-68.936;2023-08-20T18:38:35;100553.00;;;30.17;68.14